RCMQ

Taichung Airport

Airport
ICAO code
RCMQ
IATA Code
RMQ
Summary
ICAO Region
APAC
ICAO Territory
Location

Taichung, Central Taiwan

Serving
Taichung
Elevation
663 ft
Coordinates
24° 15' 53" N , 120° 37' 30" E
KCC
Airport GND
Foreign Object Debris
Airport RI
Runway Misidentification
Airport WX
Tropical Revolving Storm
Metar
RCMQ 180000Z 19007KT 9999 FEW004 SCT060 BKN120 28/24 Q1010 NOSIG RMK A2984

Taichung Airport, commonly known as Taichung Ching Chuang Kang Airport, is an airport located in Taichung County, Taiwan for both commercial and military purposes.

Climatology

Humid Sub-tropical climate (Köppen climate classification Cwa) - Hot humid summers and cooler winter. Significant precipitation in all seasons but drier in the winter.

Occasional Typhoons coming from South China Sea.

Runways

Designator Length Width Surface Rops
18/36 3658 45 CON Yes/Yes

Airport map

Aerial View

SKYbrary Partners:

Safety knowledge contributed by: